createdAt,value
2022-10-07T00:03:34.706Z,8.47
2022-10-07T00:09:36.486Z,8.00
2022-10-07T00:21:55.182Z,11.23
2022-10-07T00:27:57.056Z,12.80
2022-10-07T00:34:05.585Z,11.20
2022-10-07T00:40:07.786Z,11.90
2022-10-07T00:46:37.098Z,9.37
2022-10-07T00:52:43.369Z,11.03
2022-10-07T00:58:48.142Z,10.53
2022-10-07T01:04:51.772Z,10.57
2022-10-07T01:11:14.200Z,9.87
2022-10-07T01:17:34.698Z,9.70
2022-10-07T01:23:42.693Z,8.67
2022-10-07T01:30:04.647Z,11.20
2022-10-07T01:36:14.662Z,8.10
2022-10-07T01:42:17.723Z,10.17
2022-10-07T01:48:21.195Z,11.57
2022-10-07T01:54:28.588Z,16.50
2022-10-07T02:00:31.418Z,10.47
2022-10-07T02:06:59.412Z,9.63
2022-10-07T02:13:27.027Z,13.73
2022-10-07T02:19:36.229Z,9.47
2022-10-07T02:25:47.294Z,11.50
2022-10-07T02:31:51.721Z,10.57
2022-10-07T02:38:03.189Z,11.93
2022-10-07T02:44:22.256Z,12.13
2022-10-07T02:50:27.646Z,11.47
2022-10-07T03:03:11.357Z,11.83
2022-10-07T03:09:21.905Z,8.50
2022-10-07T03:15:25.853Z,10.27
2022-10-07T03:21:28.203Z,17.27
2022-10-07T03:27:30.221Z,15.77
2022-10-07T03:33:32.135Z,16.77
2022-10-07T03:39:33.936Z,14.20
2022-10-07T03:45:37.543Z,13.83
2022-10-07T03:51:42.402Z,13.90
2022-10-07T03:57:59.679Z,11.90
2022-10-07T04:04:02.297Z,13.93
2022-10-07T04:10:04.399Z,13.23
2022-10-07T04:16:08.457Z,13.70
2022-10-07T04:22:10.349Z,14.80
2022-10-07T04:28:18.656Z,12.77
2022-10-07T04:34:23.608Z,13.20
2022-10-07T04:46:51.194Z,11.10
2022-10-07T04:52:53.976Z,19.10
2022-10-07T04:58:56.475Z,15.77
2022-10-07T05:11:23.543Z,15.17
2022-10-07T05:17:26.138Z,25.53
2022-10-07T05:49:08.781Z,16.07
2022-10-07T06:01:41.704Z,15.67
2022-10-07T06:14:04.140Z,14.83
2022-10-07T06:39:59.356Z,13.80
2022-10-07T07:18:30.381Z,14.83
2022-10-07T12:16:22.445Z,9.05
2022-10-07T13:15:59.623Z,14.35
2022-10-07T14:12:52.266Z,11.20
2022-10-07T14:19:07.026Z,18.80
2022-10-07T14:25:22.267Z,16.33
2022-10-07T14:31:45.824Z,17.52
2022-10-07T14:37:48.806Z,23.38
2022-10-07T14:43:52.112Z,15.98
2022-10-07T14:50:00.884Z,18.42
2022-10-07T14:56:02.895Z,20.67
2022-10-07T15:08:21.705Z,14.25
2022-10-07T15:14:23.868Z,17.83
2022-10-07T15:20:26.576Z,20.95
2022-10-07T15:26:28.943Z,32.92
2022-10-07T15:32:30.893Z,24.58
2022-10-07T15:38:32.684Z,21.52
2022-10-07T15:44:34.579Z,27.30
2022-10-07T15:50:36.574Z,20.25
2022-10-07T15:56:39.528Z,6.53
2022-10-07T16:02:44.008Z,13.35
2022-10-07T16:08:46.098Z,11.27
2022-10-07T16:21:09.933Z,19.05
2022-10-07T16:27:11.748Z,16.60
2022-10-07T16:33:13.501Z,17.17
2022-10-07T16:39:18.978Z,15.88
2022-10-07T16:45:21.266Z,20.47
2022-10-07T16:51:33.358Z,41.78
2022-10-07T16:57:37.407Z,30.90
2022-10-07T17:03:45.371Z,24.90
2022-10-07T17:09:47.180Z,14.13
2022-10-07T17:15:52.698Z,18.00
2022-10-07T17:21:56.003Z,15.03
2022-10-07T17:27:57.865Z,35.90
2022-10-07T17:34:00.092Z,38.80
2022-10-07T17:40:01.891Z,96.50
2022-10-07T17:46:05.252Z,50.67
2022-10-07T17:52:09.091Z,36.83
2022-10-07T17:58:10.806Z,36.27
2022-10-07T18:04:17.116Z,22.30
2022-10-07T18:10:21.823Z,19.97
2022-10-07T18:16:23.917Z,23.87
2022-10-07T18:22:25.852Z,19.93
2022-10-07T18:28:27.668Z,23.33
2022-10-07T18:34:29.475Z,13.97
2022-10-07T18:40:31.329Z,16.57
2022-10-07T18:46:33.309Z,16.47
2022-10-07T18:52:35.069Z,13.50
2022-10-07T18:58:39.156Z,12.90
2022-10-07T19:04:40.968Z,18.30
2022-10-07T19:10:43.184Z,15.47
2022-10-07T19:16:49.249Z,18.70
2022-10-07T19:22:51.284Z,17.57
2022-10-07T19:28:54.553Z,18.23
2022-10-07T19:34:56.330Z,10.67
2022-10-07T19:40:58.059Z,15.37
2022-10-07T19:47:01.489Z,22.47
2022-10-07T19:53:05.139Z,11.63
2022-10-07T19:59:09.214Z,12.70
2022-10-07T20:05:10.908Z,22.33
2022-10-07T20:11:13.363Z,17.83
2022-10-07T20:17:15.158Z,11.23
2022-10-07T20:23:16.952Z,16.33
2022-10-07T20:29:24.087Z,12.93
2022-10-07T20:35:31.741Z,17.47
2022-10-07T20:41:53.861Z,14.47
2022-10-07T20:47:59.609Z,21.90
2022-10-07T20:54:03.550Z,14.33
2022-10-07T21:00:09.452Z,15.80
2022-10-07T21:06:11.220Z,15.50
2022-10-07T21:12:16.014Z,18.13
2022-10-07T21:18:19.197Z,14.10
2022-10-07T21:24:20.879Z,12.17
2022-10-07T21:30:22.694Z,14.67
2022-10-07T21:36:24.557Z,13.07
2022-10-07T21:42:26.339Z,14.97
2022-10-07T21:48:31.612Z,16.27
2022-10-07T21:54:33.349Z,13.10
2022-10-07T22:00:36.172Z,16.60
2022-10-07T22:06:56.331Z,14.90
2022-10-07T22:12:58.068Z,10.87
2022-10-07T22:18:59.840Z,13.97
2022-10-07T22:25:01.547Z,20.10
2022-10-07T22:31:05.689Z,18.27
2022-10-07T22:37:07.477Z,7.23
2022-10-07T22:43:09.648Z,14.37
2022-10-07T22:49:12.037Z,17.37
2022-10-07T22:55:13.806Z,9.80
2022-10-07T23:01:16.796Z,16.17
2022-10-07T23:07:18.845Z,14.53
2022-10-07T23:13:20.549Z,10.40
2022-10-07T23:19:22.305Z,20.77
2022-10-07T23:25:25.159Z,10.77
2022-10-07T23:31:28.929Z,12.93
2022-10-07T23:37:30.697Z,8.60
2022-10-07T23:43:33.689Z,11.53
2022-10-07T23:49:35.444Z,8.73
2022-10-07T23:55:37.203Z,7.40
